createdAt,value
2018-03-07T00:01:08.487Z,11.30
2018-03-07T00:03:34.931Z,10.60
2018-03-07T00:06:01.405Z,11.15
2018-03-07T00:08:28.514Z,10.98
2018-03-07T00:13:27.351Z,9.75
2018-03-07T00:15:54.483Z,8.95
2018-03-07T00:18:20.869Z,9.60
2018-03-07T00:20:47.272Z,7.47
2018-03-07T00:23:13.671Z,9.20
2018-03-07T00:25:40.040Z,8.45
2018-03-07T00:28:06.402Z,8.55
2018-03-07T00:30:32.821Z,8.38
2018-03-07T00:32:59.227Z,9.18
2018-03-07T00:35:25.654Z,9.95
2018-03-07T00:37:52.810Z,8.43
2018-03-07T00:40:19.183Z,7.35
2018-03-07T00:42:45.659Z,8.95
2018-03-07T00:45:12.846Z,8.93
2018-03-07T00:47:39.256Z,9.60
2018-03-07T00:50:05.623Z,8.68
2018-03-07T00:52:32.052Z,8.63
2018-03-07T00:54:58.409Z,8.20
2018-03-07T00:57:24.846Z,8.60
2018-03-07T00:59:51.284Z,7.80
2018-03-07T01:02:17.761Z,8.55
2018-03-07T01:04:44.197Z,7.75
2018-03-07T01:07:10.628Z,8.27
2018-03-07T01:09:36.973Z,6.50
2018-03-07T01:12:03.419Z,7.25
2018-03-07T01:14:29.830Z,7.72
2018-03-07T01:16:56.223Z,8.07
2018-03-07T01:19:22.644Z,8.98
2018-03-07T01:21:49.026Z,8.40
2018-03-07T01:24:15.491Z,8.07
2018-03-07T01:26:41.988Z,8.38
2018-03-07T01:29:08.478Z,7.43
2018-03-07T01:31:35.583Z,7.53
2018-03-07T01:34:02.060Z,7.68
2018-03-07T01:36:29.212Z,9.48
2018-03-07T01:38:55.605Z,8.13
2018-03-07T01:41:22.032Z,8.38
2018-03-07T01:43:48.470Z,8.05
2018-03-07T01:46:14.902Z,8.30
2018-03-07T01:48:41.303Z,7.78
2018-03-07T01:51:07.753Z,7.20
2018-03-07T01:53:34.160Z,7.30
2018-03-07T01:56:00.516Z,7.87
2018-03-07T01:58:26.979Z,7.12
2018-03-07T02:00:53.357Z,6.50
2018-03-07T02:03:19.758Z,6.80
2018-03-07T02:05:46.118Z,6.97
2018-03-07T02:08:12.550Z,6.35
2018-03-07T02:10:38.925Z,6.40
2018-03-07T02:13:06.033Z,6.50
2018-03-07T02:15:32.422Z,5.80
2018-03-07T02:17:58.816Z,6.35
2018-03-07T02:20:25.191Z,6.97
2018-03-07T02:22:51.603Z,5.68
2018-03-07T02:25:18.715Z,6.70
2018-03-07T02:27:45.085Z,5.85
2018-03-07T02:30:11.500Z,5.55
2018-03-07T02:32:37.881Z,5.87
2018-03-07T02:35:04.264Z,6.15
2018-03-07T02:37:31.436Z,6.18
2018-03-07T02:39:57.802Z,6.72
2018-03-07T02:42:24.206Z,5.32
2018-03-07T02:44:50.582Z,6.45
2018-03-07T02:47:16.989Z,7.30
2018-03-07T02:49:43.378Z,6.20
2018-03-07T02:52:10.493Z,6.15
2018-03-07T02:54:36.932Z,6.37
2018-03-07T02:57:03.315Z,6.03
2018-03-07T02:59:29.738Z,5.62
2018-03-07T03:01:56.121Z,6.25
2018-03-07T03:04:22.534Z,6.20
2018-03-07T03:06:48.934Z,6.12
2018-03-07T03:09:15.396Z,4.97
2018-03-07T03:11:41.806Z,6.50
2018-03-07T03:14:08.245Z,6.45
2018-03-07T03:16:34.724Z,5.40
2018-03-07T03:19:01.858Z,5.68
2018-03-07T03:21:28.305Z,6.68
2018-03-07T03:23:55.458Z,5.90
2018-03-07T03:26:21.909Z,6.70
2018-03-07T03:28:49.008Z,6.45
2018-03-07T03:31:15.465Z,6.68
2018-03-07T03:33:42.601Z,6.85
2018-03-07T03:36:08.976Z,5.95
2018-03-07T03:38:35.382Z,6.70
2018-03-07T03:41:02.525Z,6.78
2018-03-07T03:43:28.970Z,6.53
2018-03-07T03:45:56.089Z,7.07
2018-03-07T03:48:22.505Z,7.00
2018-03-07T03:50:48.869Z,6.00
2018-03-07T03:53:15.976Z,6.35
2018-03-07T03:55:42.365Z,7.00
2018-03-07T03:58:08.780Z,6.78
2018-03-07T04:00:35.991Z,7.18
2018-03-07T04:03:02.387Z,6.90
2018-03-07T04:05:28.777Z,5.90
2018-03-07T04:07:55.229Z,6.60
2018-03-07T04:10:21.683Z,6.55
2018-03-07T04:12:48.081Z,5.87
2018-03-07T04:15:14.507Z,5.97
2018-03-07T04:17:40.887Z,6.20
2018-03-07T04:20:07.325Z,6.22
2018-03-07T04:22:33.746Z,4.97
2018-03-07T04:25:00.118Z,6.15
2018-03-07T04:27:26.528Z,5.47
2018-03-07T04:29:52.910Z,6.68
2018-03-07T04:32:20.022Z,6.32
2018-03-07T04:34:46.374Z,6.68
2018-03-07T04:37:13.522Z,6.87
2018-03-07T04:39:39.896Z,7.00
2018-03-07T04:42:07.051Z,6.50
2018-03-07T04:44:33.434Z,6.40
2018-03-07T04:46:59.795Z,7.20
2018-03-07T04:49:26.213Z,6.00
2018-03-07T04:51:52.564Z,5.20
2018-03-07T04:54:18.931Z,6.25
2018-03-07T04:56:45.326Z,6.15
2018-03-07T04:59:11.686Z,6.10
2018-03-07T05:01:38.145Z,5.87
2018-03-07T05:04:04.582Z,5.97
2018-03-07T05:06:31.714Z,6.00
2018-03-07T05:08:58.119Z,6.15
2018-03-07T05:11:24.551Z,6.15
2018-03-07T05:13:50.925Z,5.72
2018-03-07T05:16:17.318Z,6.55
2018-03-07T05:18:43.800Z,6.60
2018-03-07T05:21:10.118Z,6.47
2018-03-07T05:23:37.272Z,5.53
2018-03-07T05:26:04.386Z,6.45
2018-03-07T05:28:30.777Z,5.95
2018-03-07T05:30:57.189Z,6.00
2018-03-07T05:33:23.538Z,6.85
2018-03-07T05:35:49.936Z,5.62
2018-03-07T05:38:16.370Z,6.18
2018-03-07T05:40:43.489Z,5.72
2018-03-07T05:43:09.996Z,6.45
2018-03-07T05:45:36.376Z,5.65
2018-03-07T05:48:03.537Z,6.65
2018-03-07T05:50:30.655Z,6.40
2018-03-07T05:52:56.989Z,6.10
2018-03-07T05:55:23.389Z,5.62
2018-03-07T05:57:49.752Z,6.57
2018-03-07T06:00:16.185Z,5.15
2018-03-07T06:02:42.533Z,6.55
2018-03-07T06:05:09.653Z,6.50
2018-03-07T06:07:36.037Z,6.68
2018-03-07T06:10:02.516Z,8.20
2018-03-07T06:12:28.912Z,6.07
2018-03-07T06:14:55.279Z,7.05
2018-03-07T06:17:21.666Z,6.43
2018-03-07T06:19:48.034Z,6.35
2018-03-07T06:22:14.428Z,6.43
2018-03-07T06:24:40.806Z,6.90
2018-03-07T06:27:07.168Z,6.40
2018-03-07T06:29:34.356Z,6.53
2018-03-07T06:32:00.726Z,7.95
2018-03-07T06:34:27.899Z,7.18
2018-03-07T06:36:54.335Z,6.78
2018-03-07T06:39:21.979Z,6.72
2018-03-07T06:41:49.100Z,7.03
2018-03-07T06:44:15.518Z,6.60
2018-03-07T06:46:41.913Z,5.72
2018-03-07T06:49:08.302Z,5.75
2018-03-07T06:51:34.693Z,6.37
2018-03-07T06:54:01.098Z,6.07
2018-03-07T06:56:27.501Z,6.78
2018-03-07T06:58:53.914Z,6.03
2018-03-07T07:01:20.309Z,5.60
2018-03-07T07:03:46.727Z,5.97
2018-03-07T07:06:13.167Z,5.00
2018-03-07T07:08:39.572Z,6.45
2018-03-07T07:11:06.690Z,4.68
2018-03-07T07:13:33.089Z,5.10
2018-03-07T07:15:59.478Z,4.80
2018-03-07T07:18:26.624Z,4.30
2018-03-07T07:20:53.736Z,5.03
2018-03-07T07:23:20.181Z,4.10
2018-03-07T07:25:46.592Z,4.03
2018-03-07T07:28:13.028Z,4.75
2018-03-07T07:30:39.398Z,4.30
2018-03-07T07:33:06.498Z,4.30
2018-03-07T07:35:32.960Z,3.95
2018-03-07T07:37:59.344Z,4.72
2018-03-07T07:40:25.794Z,3.97
2018-03-07T07:42:52.217Z,4.25
2018-03-07T07:45:18.664Z,4.32
2018-03-07T07:47:45.037Z,4.45
2018-03-07T07:50:11.474Z,4.40
2018-03-07T07:52:38.625Z,4.62
2018-03-07T07:55:05.009Z,3.45
2018-03-07T07:57:31.361Z,3.72
2018-03-07T07:59:58.507Z,4.30
2018-03-07T08:02:25.627Z,3.55
2018-03-07T08:04:52.729Z,3.35
2018-03-07T08:07:19.150Z,2.80
2018-03-07T08:09:45.561Z,3.53
2018-03-07T08:12:11.908Z,3.10
2018-03-07T08:14:38.303Z,2.50
2018-03-07T08:17:04.655Z,2.70
2018-03-07T08:19:31.061Z,2.28
2018-03-07T08:21:57.442Z,2.10
2018-03-07T08:24:23.825Z,1.60
2018-03-07T08:26:50.160Z,1.50
2018-03-07T08:29:16.591Z,2.03
2018-03-07T08:31:42.939Z,2.28
2018-03-07T08:34:09.293Z,1.73
2018-03-07T08:36:35.718Z,2.10
2018-03-07T08:39:02.195Z,1.67
2018-03-07T08:41:28.585Z,1.40
2018-03-07T08:43:55.720Z,1.80
2018-03-07T08:46:22.847Z,1.65
2018-03-07T08:48:49.302Z,2.05
2018-03-07T08:51:15.741Z,1.83
2018-03-07T08:53:43.773Z,1.92
2018-03-07T08:56:10.205Z,2.20
2018-03-07T08:58:36.584Z,1.95
2018-03-07T09:01:03.018Z,1.90
2018-03-07T09:03:29.397Z,1.85
2018-03-07T09:05:55.818Z,1.95
2018-03-07T09:08:22.250Z,1.23
2018-03-07T09:10:48.653Z,1.10
2018-03-07T09:13:15.013Z,1.30
2018-03-07T09:15:41.457Z,1.30
2018-03-07T09:18:07.874Z,1.40
2018-03-07T09:20:34.224Z,0.90
2018-03-07T09:23:00.635Z,0.75
2018-03-07T09:25:27.021Z,0.98
2018-03-07T09:27:53.402Z,1.10
2018-03-07T09:30:19.786Z,0.80
2018-03-07T09:32:46.169Z,0.90
2018-03-07T09:35:12.590Z,0.70
2018-03-07T09:37:39.790Z,1.10
2018-03-07T09:40:06.168Z,1.00
2018-03-07T09:42:32.567Z,1.25
2018-03-07T09:44:58.924Z,1.40
2018-03-07T09:47:25.338Z,0.82
2018-03-07T09:49:51.712Z,0.80
2018-03-07T09:52:18.096Z,0.70
2018-03-07T09:54:44.474Z,0.82
2018-03-07T09:57:10.862Z,1.23
2018-03-07T09:59:37.252Z,1.02
2018-03-07T10:02:04.473Z,0.90
2018-03-07T10:04:30.842Z,1.05
2018-03-07T10:06:57.255Z,1.02
2018-03-07T10:09:24.422Z,0.95
2018-03-07T10:11:50.831Z,0.88
2018-03-07T10:14:17.982Z,0.80
2018-03-07T10:16:45.134Z,1.02
2018-03-07T10:19:11.494Z,1.10
2018-03-07T10:21:37.899Z,0.93
2018-03-07T10:24:05.011Z,1.10
2018-03-07T10:26:31.463Z,0.80
2018-03-07T10:28:57.802Z,1.45
2018-03-07T10:31:24.929Z,0.90
2018-03-07T10:33:51.356Z,0.70
2018-03-07T10:36:17.710Z,1.10
2018-03-07T10:38:44.899Z,1.58
2018-03-07T10:41:11.241Z,1.15
2018-03-07T10:43:37.713Z,0.90
2018-03-07T10:46:04.099Z,0.75
2018-03-07T10:48:30.518Z,0.70
2018-03-07T10:50:56.920Z,0.75
2018-03-07T10:53:24.090Z,0.93
2018-03-07T10:55:50.484Z,0.80
2018-03-07T10:58:16.870Z,1.00
2018-03-07T11:00:43.310Z,0.82
2018-03-07T11:03:09.710Z,0.60
2018-03-07T11:05:36.141Z,0.60
2018-03-07T11:08:02.575Z,0.60
2018-03-07T11:10:29.039Z,0.80
2018-03-07T11:12:55.425Z,0.70
2018-03-07T11:15:21.832Z,0.50
2018-03-07T11:17:48.987Z,0.50
2018-03-07T11:20:15.396Z,0.50
2018-03-07T11:22:41.805Z,0.52
2018-03-07T11:25:08.275Z,0.88
2018-03-07T11:27:34.661Z,0.57
2018-03-07T11:30:01.063Z,0.65
2018-03-07T11:32:28.204Z,1.33
2018-03-07T11:34:55.310Z,0.80
2018-03-07T11:37:21.700Z,0.85
2018-03-07T11:39:48.118Z,0.65
2018-03-07T11:42:14.594Z,0.68
2018-03-07T11:44:40.991Z,0.60
2018-03-07T11:47:07.419Z,0.70
2018-03-07T11:49:33.841Z,0.90
2018-03-07T11:52:00.994Z,0.73
2018-03-07T11:54:28.139Z,0.75
2018-03-07T11:56:55.305Z,0.73
2018-03-07T11:59:21.667Z,0.80
2018-03-07T12:01:48.075Z,0.70
2018-03-07T12:04:14.494Z,0.77
2018-03-07T12:06:40.889Z,0.75
2018-03-07T12:09:07.286Z,1.10
2018-03-07T12:11:33.691Z,0.70
2018-03-07T12:14:00.078Z,0.70
2018-03-07T12:16:26.477Z,0.70
2018-03-07T12:18:52.909Z,1.00
2018-03-07T12:21:19.308Z,1.30
2018-03-07T12:23:45.896Z,1.00
2018-03-07T12:26:12.338Z,0.90
2018-03-07T12:28:39.514Z,0.85
2018-03-07T12:31:06.628Z,0.80
2018-03-07T12:33:33.050Z,0.90
2018-03-07T12:35:59.454Z,0.77
2018-03-07T12:38:25.837Z,0.90
2018-03-07T12:40:52.522Z,0.73
2018-03-07T12:43:18.945Z,0.70
2018-03-07T12:45:45.361Z,0.52
2018-03-07T12:48:12.484Z,0.60
2018-03-07T12:50:39.677Z,0.70
2018-03-07T12:53:06.049Z,1.02
2018-03-07T12:55:32.431Z,1.10
2018-03-07T12:57:58.834Z,0.77
2018-03-07T13:00:25.972Z,0.60
2018-03-07T13:02:53.158Z,0.60
2018-03-07T13:05:19.553Z,0.80
2018-03-07T13:07:46.010Z,0.70
2018-03-07T13:10:12.400Z,1.02
2018-03-07T13:12:38.779Z,0.98
2018-03-07T13:15:05.192Z,0.60
2018-03-07T13:17:32.286Z,0.93
2018-03-07T13:19:58.705Z,0.70
2018-03-07T13:22:32.086Z,0.70
2018-03-07T13:24:58.499Z,0.85
2018-03-07T13:27:24.890Z,0.73
2018-03-07T13:29:51.990Z,0.70
2018-03-07T13:32:18.420Z,0.90
2018-03-07T13:34:44.805Z,0.90
2018-03-07T13:37:11.206Z,0.90
2018-03-07T13:39:37.576Z,0.90
2018-03-07T13:42:04.032Z,0.88
2018-03-07T13:44:31.159Z,0.85
2018-03-07T13:46:58.987Z,0.60
2018-03-07T13:49:25.386Z,0.70
2018-03-07T13:51:52.544Z,1.50
2018-03-07T13:54:18.939Z,0.80
2018-03-07T13:56:46.137Z,0.80
2018-03-07T13:59:12.523Z,0.98
2018-03-07T14:01:39.647Z,0.88
2018-03-07T14:04:06.110Z,0.75
2018-03-07T14:06:33.226Z,0.80
2018-03-07T14:08:59.658Z,0.80
2018-03-07T14:11:26.101Z,0.80
2018-03-07T14:13:52.540Z,0.60
2018-03-07T14:16:19.757Z,0.90
2018-03-07T14:18:46.162Z,0.70
2018-03-07T14:21:12.545Z,0.70
2018-03-07T14:23:39.022Z,0.70
2018-03-07T14:26:05.524Z,0.77
2018-03-07T14:28:31.905Z,0.90
2018-03-07T14:30:58.280Z,0.80
2018-03-07T14:33:25.429Z,0.80
2018-03-07T14:35:51.829Z,1.00
2018-03-07T14:38:18.222Z,0.95
2018-03-07T14:40:44.598Z,0.85
2018-03-07T14:43:11.076Z,0.68
2018-03-07T14:45:37.502Z,0.80
2018-03-07T14:48:03.995Z,0.80
2018-03-07T14:50:30.390Z,1.00
2018-03-07T14:52:56.752Z,0.80
2018-03-07T14:55:23.161Z,0.60
2018-03-07T14:57:49.520Z,0.82
2018-03-07T15:00:15.943Z,0.90
2018-03-07T15:02:43.272Z,0.70
2018-03-07T15:05:09.729Z,0.60
2018-03-07T15:07:36.857Z,0.90
2018-03-07T15:10:03.333Z,0.93
2018-03-07T15:12:29.827Z,0.82
2018-03-07T15:14:56.221Z,1.10
2018-03-07T15:17:22.632Z,0.88
2018-03-07T15:19:49.768Z,1.00
2018-03-07T15:22:16.991Z,0.77
2018-03-07T15:24:43.350Z,0.80
2018-03-07T15:27:09.739Z,0.90
2018-03-07T15:29:36.150Z,1.00
2018-03-07T15:32:02.769Z,1.05
2018-03-07T15:34:29.908Z,1.70
2018-03-07T15:36:57.077Z,0.95
2018-03-07T15:39:23.515Z,1.10
2018-03-07T15:41:49.941Z,1.10
2018-03-07T15:44:16.472Z,0.80
2018-03-07T15:46:42.849Z,0.50
2018-03-07T15:49:09.281Z,1.00
2018-03-07T15:51:35.693Z,0.62
2018-03-07T15:54:02.092Z,1.00
2018-03-07T15:56:29.270Z,1.10
2018-03-07T15:58:55.747Z,0.88
2018-03-07T16:01:22.199Z,1.12
2018-03-07T16:03:49.364Z,0.70
2018-03-07T16:06:15.744Z,0.98
2018-03-07T16:08:42.186Z,1.10
2018-03-07T16:11:08.545Z,0.80
2018-03-07T16:13:35.721Z,0.90
2018-03-07T16:16:02.115Z,0.88
2018-03-07T16:18:28.493Z,1.17
2018-03-07T16:20:54.946Z,0.85
2018-03-07T16:23:21.331Z,1.00
2018-03-07T16:25:47.781Z,1.30
2018-03-07T16:28:14.245Z,1.20
2018-03-07T16:30:40.707Z,1.00
2018-03-07T16:33:07.076Z,0.70
2018-03-07T16:35:33.484Z,0.93
2018-03-07T16:37:59.936Z,0.70
2018-03-07T16:40:26.403Z,1.02
2018-03-07T16:42:52.807Z,1.00
2018-03-07T16:45:19.223Z,1.58
2018-03-07T16:47:45.629Z,1.35
2018-03-07T16:50:12.039Z,1.15
2018-03-07T16:52:38.461Z,1.20
2018-03-07T16:55:04.888Z,1.23
2018-03-07T16:57:31.284Z,1.80
2018-03-07T16:59:57.762Z,1.20
2018-03-07T17:02:24.263Z,2.92
2018-03-07T17:04:50.656Z,1.42
2018-03-07T17:07:17.086Z,1.20
2018-03-07T17:09:43.535Z,0.98
2018-03-07T17:12:09.929Z,0.98
2018-03-07T17:14:36.412Z,1.12
2018-03-07T17:17:02.813Z,1.10
2018-03-07T17:19:29.229Z,0.90
2018-03-07T17:21:55.656Z,1.30
2018-03-07T17:24:22.039Z,1.30
2018-03-07T17:26:48.530Z,1.35
2018-03-07T17:29:15.657Z,1.37
2018-03-07T17:31:42.653Z,1.60
2018-03-07T17:34:09.252Z,1.67
2018-03-07T17:36:36.362Z,1.40
2018-03-07T17:39:02.934Z,1.67
2018-03-07T17:41:30.112Z,1.70
2018-03-07T17:43:56.595Z,1.70
2018-03-07T17:46:23.030Z,1.98
2018-03-07T17:48:49.430Z,1.40
2018-03-07T17:51:16.025Z,1.40
2018-03-07T17:53:42.470Z,1.73
2018-03-07T17:56:08.904Z,1.00
2018-03-07T17:58:35.330Z,0.90
2018-03-07T18:01:01.758Z,1.70
2018-03-07T18:03:28.152Z,1.62
2018-03-07T18:05:54.610Z,1.80
2018-03-07T18:08:21.740Z,1.75
2018-03-07T18:10:48.175Z,1.80
2018-03-07T18:13:14.618Z,1.52
2018-03-07T18:15:41.176Z,1.65
2018-03-07T18:18:07.592Z,1.60
2018-03-07T18:20:34.736Z,1.30
2018-03-07T18:23:01.974Z,1.20
2018-03-07T18:25:28.436Z,0.82
2018-03-07T18:27:54.879Z,0.93
2018-03-07T18:30:21.321Z,0.85
2018-03-07T18:32:47.754Z,0.90
2018-03-07T18:35:14.155Z,0.77
2018-03-07T18:37:40.625Z,1.08
2018-03-07T18:40:07.078Z,0.90
2018-03-07T18:42:33.525Z,1.08
2018-03-07T18:44:59.983Z,1.25
2018-03-07T18:47:26.396Z,1.00
2018-03-07T18:49:52.814Z,0.80
2018-03-07T18:52:19.328Z,1.00
2018-03-07T18:54:45.747Z,1.08
2018-03-07T18:57:12.211Z,1.25
2018-03-07T18:59:38.626Z,1.08
2018-03-07T19:02:05.071Z,1.10
2018-03-07T19:04:31.437Z,1.30
2018-03-07T19:06:58.605Z,0.90
2018-03-07T19:09:25.071Z,1.25
2018-03-07T19:11:51.520Z,0.90
2018-03-07T19:14:18.043Z,1.20
2018-03-07T19:16:44.450Z,0.85
2018-03-07T19:19:10.931Z,1.50
2018-03-07T19:21:38.101Z,1.20
2018-03-07T19:24:04.524Z,0.75
2018-03-07T19:26:30.931Z,0.80
2018-03-07T19:28:57.407Z,1.05
2018-03-07T19:31:23.905Z,0.85
2018-03-07T19:33:51.089Z,1.95
2018-03-07T19:36:17.640Z,1.20
2018-03-07T19:38:44.133Z,1.10
2018-03-07T19:41:10.621Z,1.33
2018-03-07T19:43:37.073Z,1.30
2018-03-07T19:46:03.544Z,1.85
2018-03-07T19:48:30.037Z,2.00
2018-03-07T19:50:56.554Z,2.90
2018-03-07T19:53:23.029Z,2.47
2018-03-07T19:55:50.361Z,2.30
2018-03-07T19:58:16.809Z,1.70
2018-03-07T20:00:43.982Z,1.40
2018-03-07T20:03:17.336Z,1.52
2018-03-07T20:05:43.757Z,2.10
2018-03-07T20:08:10.219Z,2.10
2018-03-07T20:10:37.392Z,2.80
2018-03-07T20:13:03.848Z,2.70
2018-03-07T20:15:30.286Z,2.50
2018-03-07T20:17:56.667Z,2.53
2018-03-07T20:20:23.117Z,1.75
2018-03-07T20:22:50.301Z,1.58
2018-03-07T20:25:17.653Z,1.60
2018-03-07T20:27:44.070Z,1.50
2018-03-07T20:30:10.567Z,1.80
2018-03-07T20:32:37.009Z,1.90
2018-03-07T20:35:03.483Z,2.10
2018-03-07T20:37:29.935Z,2.17
2018-03-07T20:39:56.373Z,2.00
2018-03-07T20:42:22.897Z,2.20
2018-03-07T20:44:49.439Z,1.80
2018-03-07T20:47:15.920Z,2.00
2018-03-07T20:49:42.358Z,2.35
2018-03-07T20:52:08.789Z,1.98
2018-03-07T20:54:35.262Z,2.30
2018-03-07T20:57:01.746Z,2.10
2018-03-07T20:59:28.156Z,1.60
2018-03-07T21:01:55.365Z,1.60
2018-03-07T21:04:21.855Z,1.45
2018-03-07T21:06:48.377Z,2.25
2018-03-07T21:09:14.889Z,1.42
2018-03-07T21:11:42.079Z,1.40
2018-03-07T21:14:08.575Z,1.73
2018-03-07T21:16:35.877Z,2.40
2018-03-07T21:19:02.366Z,3.00
2018-03-07T21:21:29.553Z,1.62
2018-03-07T21:23:56.013Z,1.35
2018-03-07T21:26:22.558Z,1.90
2018-03-07T21:28:49.051Z,1.73
2018-03-07T21:31:15.490Z,1.50
2018-03-07T21:33:41.936Z,1.30
2018-03-07T21:36:08.348Z,1.60
2018-03-07T21:38:34.729Z,1.90
2018-03-07T21:41:01.948Z,1.60
2018-03-07T21:43:28.525Z,1.52
2018-03-07T21:45:55.736Z,1.50
2018-03-07T21:48:22.995Z,1.40
2018-03-07T21:50:49.472Z,1.12
2018-03-07T21:53:16.013Z,1.70
2018-03-07T21:55:42.503Z,1.30
2018-03-07T21:58:08.955Z,1.58
2018-03-07T22:00:36.121Z,1.33
2018-03-07T22:03:02.740Z,1.27
2018-03-07T22:05:29.284Z,1.65
2018-03-07T22:07:55.728Z,1.40
2018-03-07T22:10:22.155Z,1.80
2018-03-07T22:12:48.614Z,1.50
2018-03-07T22:15:15.081Z,1.40
2018-03-07T22:17:41.569Z,1.80
2018-03-07T22:20:08.014Z,1.67
2018-03-07T22:22:34.499Z,1.33
2018-03-07T22:25:00.918Z,1.58
2018-03-07T22:27:27.338Z,1.20
2018-03-07T22:29:53.771Z,1.30
2018-03-07T22:32:20.226Z,1.12
2018-03-07T22:34:47.393Z,1.67
2018-03-07T22:37:13.826Z,1.23
2018-03-07T22:39:40.325Z,1.52
2018-03-07T22:42:06.752Z,1.25
2018-03-07T22:44:33.929Z,1.55
2018-03-07T22:47:00.319Z,1.77
2018-03-07T22:49:26.807Z,1.58
2018-03-07T22:51:53.239Z,1.33
2018-03-07T22:54:19.675Z,1.70
2018-03-07T22:56:46.139Z,2.22
2018-03-07T22:59:12.542Z,1.58
2018-03-07T23:01:39.066Z,1.62
2018-03-07T23:04:06.182Z,1.30
2018-03-07T23:06:32.634Z,1.60
2018-03-07T23:08:59.056Z,1.35
2018-03-07T23:11:26.175Z,1.70
2018-03-07T23:13:52.603Z,1.30
2018-03-07T23:16:19.146Z,1.95
2018-03-07T23:18:45.585Z,1.60
2018-03-07T23:21:12.746Z,1.60
2018-03-07T23:23:39.930Z,2.10
2018-03-07T23:26:07.096Z,2.17
2018-03-07T23:28:33.561Z,1.73
2018-03-07T23:30:59.943Z,1.37
2018-03-07T23:33:26.365Z,1.60
2018-03-07T23:35:52.790Z,1.73
2018-03-07T23:38:19.225Z,2.03
2018-03-07T23:40:46.218Z,1.90
2018-03-07T23:43:12.633Z,1.80
2018-03-07T23:45:39.026Z,1.85
2018-03-07T23:48:05.393Z,1.42
2018-03-07T23:50:31.834Z,1.58
2018-03-07T23:52:58.250Z,1.40
2018-03-07T23:55:24.670Z,1.40
2018-03-07T23:57:51.031Z,1.60
